createdAt,value
2023-05-17T00:02:29.583Z,2.20
2023-05-17T00:05:02.474Z,2.37
2023-05-17T00:07:36.723Z,2.40
2023-05-17T00:10:12.840Z,2.53
2023-05-17T00:12:45.495Z,2.10
2023-05-17T00:15:20.545Z,2.57
2023-05-17T00:17:53.393Z,2.53
2023-05-17T00:20:26.678Z,2.60
2023-05-17T00:23:08.421Z,2.70
2023-05-17T00:25:41.349Z,3.20
2023-05-17T00:28:14.105Z,2.40
2023-05-17T00:30:46.943Z,2.53
2023-05-17T00:33:20.279Z,3.07
2023-05-17T00:35:53.164Z,2.60
2023-05-17T00:38:27.132Z,3.20
2023-05-17T00:40:59.917Z,2.67
2023-05-17T00:43:32.567Z,3.13
2023-05-17T00:46:05.583Z,2.80
2023-05-17T00:48:38.524Z,2.60
2023-05-17T00:51:12.169Z,3.17
2023-05-17T00:53:46.826Z,2.90
2023-05-17T00:56:21.010Z,2.93
2023-05-17T00:58:54.710Z,3.33
2023-05-17T01:01:28.141Z,3.20
2023-05-17T01:04:01.165Z,2.93
2023-05-17T01:06:34.068Z,2.90
2023-05-17T01:09:08.695Z,3.43
2023-05-17T01:11:47.112Z,3.30
2023-05-17T01:14:26.506Z,3.60
2023-05-17T01:17:02.342Z,3.50
2023-05-17T01:19:51.886Z,3.70
2023-05-17T01:22:29.574Z,3.40
2023-05-17T01:25:08.955Z,3.50
2023-05-17T01:27:46.484Z,4.47
2023-05-17T01:30:20.904Z,3.63
2023-05-17T01:32:54.336Z,3.73
2023-05-17T01:35:27.431Z,3.20
2023-05-17T01:38:00.417Z,3.80
2023-05-17T01:40:34.129Z,3.40
2023-05-17T01:43:14.473Z,4.80
2023-05-17T01:45:50.601Z,3.53
2023-05-17T01:48:30.818Z,4.07
2023-05-17T01:51:03.851Z,3.77
2023-05-17T01:53:39.221Z,3.67
2023-05-17T01:56:17.793Z,4.03
2023-05-17T01:58:53.547Z,3.47
2023-05-17T02:01:28.662Z,4.10
2023-05-17T02:04:01.502Z,3.70
2023-05-17T02:06:34.263Z,4.13
2023-05-17T02:09:06.854Z,3.67
2023-05-17T02:11:39.574Z,3.53
2023-05-17T02:14:13.619Z,4.13
2023-05-17T02:16:48.597Z,4.00
2023-05-17T02:19:23.794Z,3.43
2023-05-17T02:21:56.541Z,4.40
2023-05-17T02:24:30.738Z,4.17
2023-05-17T02:27:03.601Z,4.73
2023-05-17T02:29:37.626Z,4.20
2023-05-17T02:32:11.082Z,4.43
2023-05-17T02:34:47.849Z,3.80
2023-05-17T02:37:20.671Z,3.80
2023-05-17T02:39:54.444Z,4.17
2023-05-17T02:42:27.273Z,3.77
2023-05-17T02:45:01.451Z,3.90
2023-05-17T02:47:34.200Z,3.87
2023-05-17T02:50:10.038Z,4.23
2023-05-17T02:52:42.655Z,3.67
2023-05-17T02:55:15.330Z,4.33
2023-05-17T02:57:47.924Z,4.20
2023-05-17T03:00:21.988Z,4.63
2023-05-17T03:02:58.150Z,4.13
2023-05-17T03:05:31.028Z,3.87
2023-05-17T03:08:03.686Z,3.70
2023-05-17T03:10:36.263Z,4.23
2023-05-17T03:13:09.013Z,4.13
2023-05-17T03:15:43.116Z,4.60
2023-05-17T03:18:15.828Z,4.40
2023-05-17T03:20:48.931Z,3.97
2023-05-17T03:23:29.212Z,3.40
2023-05-17T03:26:01.895Z,3.77
2023-05-17T03:28:34.527Z,4.20
2023-05-17T03:31:08.598Z,4.17
2023-05-17T03:33:41.531Z,3.73
2023-05-17T03:36:14.411Z,4.37
2023-05-17T03:38:47.038Z,5.10
2023-05-17T03:41:19.779Z,4.13
2023-05-17T03:43:52.370Z,4.23
2023-05-17T03:46:26.477Z,3.73
2023-05-17T03:49:06.529Z,4.80
2023-05-17T03:51:39.148Z,4.67
2023-05-17T03:54:11.933Z,3.90
2023-05-17T03:56:47.100Z,4.40
2023-05-17T03:59:21.615Z,4.63
2023-05-17T04:01:55.668Z,4.47
2023-05-17T04:04:28.437Z,5.10
2023-05-17T04:07:01.439Z,4.50
2023-05-17T04:09:35.074Z,4.80
2023-05-17T04:12:09.128Z,4.70
2023-05-17T04:14:41.929Z,4.33
2023-05-17T04:17:16.971Z,4.60
2023-05-17T04:19:49.831Z,4.03
2023-05-17T04:22:22.677Z,4.80
2023-05-17T04:24:55.528Z,5.03
2023-05-17T04:27:28.186Z,4.97
2023-05-17T04:30:02.340Z,4.73
2023-05-17T04:32:36.843Z,4.37
2023-05-17T04:35:10.442Z,4.87
2023-05-17T04:37:43.641Z,4.90
2023-05-17T04:40:19.043Z,4.27
2023-05-17T04:42:52.176Z,4.77
2023-05-17T04:45:25.188Z,5.07
2023-05-17T04:47:59.693Z,4.80
2023-05-17T04:50:32.654Z,4.87
2023-05-17T04:53:05.253Z,4.40
2023-05-17T04:55:38.168Z,4.30
2023-05-17T04:58:10.903Z,4.90
2023-05-17T05:00:43.451Z,4.90
2023-05-17T05:03:17.548Z,5.00
2023-05-17T05:05:50.997Z,4.40
2023-05-17T05:08:23.843Z,4.30
2023-05-17T05:10:56.519Z,4.17
2023-05-17T05:13:29.162Z,4.37
2023-05-17T05:16:01.938Z,4.60
2023-05-17T05:18:37.387Z,5.20
2023-05-17T05:21:12.484Z,3.50
2023-05-17T05:23:45.170Z,3.77
2023-05-17T05:26:17.950Z,3.90
2023-05-17T05:28:50.914Z,4.23
2023-05-17T05:31:23.613Z,3.73
2023-05-17T05:33:57.834Z,4.17
2023-05-17T05:36:30.900Z,4.33
2023-05-17T05:39:03.915Z,3.93
2023-05-17T05:41:36.578Z,3.53
2023-05-17T05:44:09.241Z,4.03
2023-05-17T05:46:41.942Z,4.03
2023-05-17T05:49:16.006Z,4.90
2023-05-17T05:51:48.744Z,4.03
2023-05-17T05:54:21.496Z,3.73
2023-05-17T05:56:54.539Z,5.07
2023-05-17T05:59:27.251Z,4.80
2023-05-17T06:01:59.998Z,3.80
2023-05-17T06:04:44.455Z,4.00
2023-05-17T06:07:18.465Z,2.57
2023-05-17T06:09:51.173Z,3.40
2023-05-17T06:12:23.787Z,3.37
2023-05-17T06:14:57.627Z,3.80
2023-05-17T06:17:30.535Z,3.67
2023-05-17T06:20:07.534Z,2.50
2023-05-17T06:22:42.704Z,3.47
2023-05-17T06:25:15.316Z,3.03
2023-05-17T06:27:48.069Z,3.27
2023-05-17T06:30:20.725Z,3.20
2023-05-17T06:32:53.488Z,2.67
2023-05-17T06:35:33.021Z,3.13
2023-05-17T06:38:10.498Z,3.07
2023-05-17T06:40:45.171Z,2.93
2023-05-17T06:43:17.876Z,3.00
2023-05-17T06:45:53.130Z,3.53
2023-05-17T06:48:26.184Z,4.23
2023-05-17T06:51:00.340Z,3.20
2023-05-17T06:53:33.576Z,2.90
2023-05-17T06:56:06.291Z,3.60
2023-05-17T06:58:38.960Z,2.00
2023-05-17T07:01:11.633Z,2.97
2023-05-17T07:03:44.546Z,3.10
2023-05-17T07:06:18.710Z,3.03
2023-05-17T07:08:51.368Z,2.93
2023-05-17T07:11:24.120Z,2.10
2023-05-17T07:13:56.776Z,2.10
2023-05-17T07:16:29.484Z,1.87
2023-05-17T07:19:02.417Z,2.63
2023-05-17T07:21:36.684Z,2.43
2023-05-17T07:24:11.761Z,3.30
2023-05-17T07:26:44.468Z,2.90
2023-05-17T07:29:17.114Z,2.43
2023-05-17T07:31:49.929Z,2.13
2023-05-17T07:34:23.393Z,2.73
2023-05-17T07:36:57.566Z,2.33
2023-05-17T07:39:30.413Z,2.50
2023-05-17T07:42:05.296Z,2.93
2023-05-17T07:44:38.462Z,2.53
2023-05-17T07:47:11.291Z,3.00
2023-05-17T07:49:44.136Z,2.73
2023-05-17T07:52:18.577Z,2.53
2023-05-17T07:54:51.159Z,2.60
2023-05-17T07:57:24.158Z,2.67
2023-05-17T07:59:56.876Z,2.07
2023-05-17T08:02:32.807Z,2.10
2023-05-17T08:05:05.641Z,2.63
2023-05-17T08:07:42.402Z,1.80
2023-05-17T08:10:15.037Z,2.50
2023-05-17T08:12:47.849Z,2.97
2023-05-17T08:15:20.559Z,3.07
2023-05-17T08:17:53.259Z,2.50
2023-05-17T08:20:26.175Z,2.50
2023-05-17T08:23:07.829Z,2.63
2023-05-17T08:25:43.316Z,2.60
2023-05-17T08:28:16.267Z,2.50
2023-05-17T08:30:48.943Z,3.30
2023-05-17T08:33:22.676Z,3.47
2023-05-17T08:35:57.747Z,2.23
2023-05-17T08:38:31.968Z,2.50
2023-05-17T08:41:04.698Z,3.10
2023-05-17T08:43:38.197Z,2.60
2023-05-17T08:46:11.127Z,3.27
2023-05-17T08:48:45.965Z,2.10
2023-05-17T08:51:18.917Z,2.30
2023-05-17T08:53:53.294Z,2.80
2023-05-17T08:56:26.974Z,3.07
2023-05-17T08:59:00.293Z,3.23
2023-05-17T09:01:33.505Z,3.27
2023-05-17T09:04:08.166Z,2.90
2023-05-17T09:06:41.388Z,1.63
2023-05-17T09:09:15.906Z,2.73
2023-05-17T09:11:48.957Z,1.37
2023-05-17T09:14:24.064Z,2.20
2023-05-17T09:16:57.771Z,2.20
2023-05-17T09:19:34.886Z,2.23
2023-05-17T09:22:08.519Z,2.20
2023-05-17T09:24:42.863Z,3.80
2023-05-17T09:27:16.475Z,2.67
2023-05-17T09:29:51.443Z,2.10
2023-05-17T09:32:25.231Z,3.20
2023-05-17T09:35:00.325Z,2.80
2023-05-17T09:37:33.076Z,2.27
2023-05-17T09:40:07.972Z,1.80
2023-05-17T09:42:41.126Z,2.27
2023-05-17T09:45:14.579Z,2.83
2023-05-17T09:47:48.202Z,2.33
2023-05-17T09:50:23.124Z,2.30
2023-05-17T09:52:57.480Z,2.00
2023-05-17T09:55:32.374Z,2.13
2023-05-17T09:58:08.059Z,2.33
2023-05-17T10:00:41.653Z,2.83
2023-05-17T10:03:14.899Z,2.90
2023-05-17T10:05:47.917Z,1.87
2023-05-17T10:08:23.177Z,2.73
2023-05-17T10:11:00.672Z,2.80
2023-05-17T10:13:35.576Z,2.20
2023-05-17T10:16:08.664Z,2.03
2023-05-17T10:18:41.737Z,2.37
2023-05-17T10:21:16.654Z,2.70
2023-05-17T10:23:49.519Z,2.60
2023-05-17T10:26:24.008Z,2.67
2023-05-17T10:29:00.615Z,2.00
2023-05-17T10:31:34.310Z,2.57
2023-05-17T10:34:07.594Z,2.00
2023-05-17T10:36:41.873Z,2.37
2023-05-17T10:39:14.573Z,2.73
2023-05-17T10:41:50.723Z,2.40
2023-05-17T10:44:24.762Z,2.23
2023-05-17T10:46:58.532Z,2.13
2023-05-17T10:49:32.171Z,2.40
2023-05-17T10:52:12.863Z,3.67
2023-05-17T10:54:46.311Z,2.47
2023-05-17T10:57:21.968Z,2.70
2023-05-17T10:59:59.899Z,2.17
2023-05-17T11:02:32.715Z,2.50
2023-05-17T11:05:05.708Z,1.83
2023-05-17T11:07:38.706Z,2.20
2023-05-17T11:10:14.247Z,1.80
2023-05-17T11:12:54.086Z,1.67
2023-05-17T11:15:30.364Z,1.80
2023-05-17T11:18:18.693Z,2.10
2023-05-17T11:21:09.423Z,2.23
2023-05-17T11:23:43.127Z,2.13
2023-05-17T11:26:22.221Z,1.50
2023-05-17T11:29:06.084Z,2.37
2023-05-17T11:31:46.753Z,2.17
2023-05-17T11:34:23.406Z,2.10
2023-05-17T11:36:57.025Z,2.10
2023-05-17T11:39:29.868Z,2.33
2023-05-17T11:42:02.569Z,2.23
2023-05-17T11:44:37.717Z,2.17
2023-05-17T11:47:10.673Z,3.63
2023-05-17T11:49:43.385Z,2.07
2023-05-17T11:52:17.570Z,2.50
2023-05-17T11:54:53.033Z,2.13
2023-05-17T11:57:31.370Z,2.43
2023-05-17T12:00:08.868Z,3.07
2023-05-17T12:02:41.528Z,2.10
2023-05-17T12:05:20.579Z,2.47
2023-05-17T12:07:54.020Z,2.40
2023-05-17T12:10:27.040Z,2.53
2023-05-17T12:13:02.857Z,1.63
2023-05-17T12:15:37.361Z,2.43
2023-05-17T12:18:10.260Z,2.67
2023-05-17T12:20:59.141Z,1.70
2023-05-17T12:23:32.803Z,2.60
2023-05-17T12:26:06.677Z,2.80
2023-05-17T12:28:42.909Z,2.23
2023-05-17T12:31:18.360Z,1.70
2023-05-17T12:33:51.598Z,2.50
2023-05-17T12:36:24.603Z,2.30
2023-05-17T12:38:57.676Z,2.30
2023-05-17T12:41:31.313Z,2.70
2023-05-17T12:44:14.824Z,2.37
2023-05-17T12:46:53.907Z,1.80
2023-05-17T12:49:26.921Z,2.23
2023-05-17T12:52:04.350Z,1.93
2023-05-17T12:54:37.127Z,2.30
2023-05-17T12:57:16.070Z,2.50
2023-05-17T12:59:49.823Z,2.33
2023-05-17T13:02:24.153Z,2.53
2023-05-17T13:04:57.061Z,2.63
2023-05-17T13:07:29.757Z,1.87
2023-05-17T13:10:02.555Z,2.50
2023-05-17T13:12:39.291Z,2.47
2023-05-17T13:15:12.249Z,3.20
2023-05-17T13:17:50.206Z,3.10
2023-05-17T13:20:23.212Z,4.20
2023-05-17T13:22:55.990Z,1.80
2023-05-17T13:25:28.643Z,2.20
2023-05-17T13:28:03.500Z,2.23
2023-05-17T13:30:39.940Z,3.00
2023-05-17T13:33:14.427Z,2.23
2023-05-17T13:35:47.184Z,2.13
2023-05-17T13:38:19.835Z,1.87
2023-05-17T13:40:56.520Z,2.60
2023-05-17T13:43:29.311Z,2.00
2023-05-17T13:46:02.219Z,2.20
2023-05-17T13:48:36.396Z,2.27
2023-05-17T13:51:12.249Z,2.17
2023-05-17T13:53:46.845Z,2.47
2023-05-17T13:56:19.427Z,2.13
2023-05-17T13:58:52.163Z,7.47
2023-05-17T14:01:24.936Z,2.90
2023-05-17T14:04:02.953Z,3.27
2023-05-17T14:06:35.679Z,2.67
2023-05-17T14:09:08.400Z,2.00
2023-05-17T14:11:41.125Z,2.47
2023-05-17T14:14:16.229Z,2.33
2023-05-17T14:16:49.878Z,2.20
2023-05-17T14:19:24.092Z,2.80
2023-05-17T14:21:56.891Z,3.03
2023-05-17T14:24:29.617Z,2.97
2023-05-17T14:27:02.508Z,2.37
2023-05-17T14:29:35.222Z,2.60
2023-05-17T14:32:08.316Z,2.23
2023-05-17T14:34:42.362Z,2.40
2023-05-17T14:37:15.472Z,2.40
2023-05-17T14:40:05.951Z,1.90
2023-05-17T14:42:39.418Z,2.63
2023-05-17T14:45:12.091Z,2.93
2023-05-17T14:47:44.688Z,2.67
2023-05-17T14:50:18.847Z,3.57
2023-05-17T14:52:51.472Z,2.30
2023-05-17T14:55:26.440Z,2.47
2023-05-17T14:57:59.277Z,3.20
2023-05-17T15:00:32.522Z,2.90
2023-05-17T15:03:05.526Z,2.43
2023-05-17T15:05:40.328Z,2.40
2023-05-17T15:08:14.296Z,2.30
2023-05-17T15:10:47.073Z,2.67
2023-05-17T15:13:19.709Z,2.43
2023-05-17T15:15:53.032Z,2.20
2023-05-17T15:18:25.900Z,2.37
2023-05-17T15:21:00.004Z,2.73
2023-05-17T15:23:32.710Z,2.20
2023-05-17T15:26:05.514Z,2.57
2023-05-17T15:28:38.241Z,2.93
2023-05-17T15:31:11.132Z,2.20
2023-05-17T15:33:44.130Z,2.53
2023-05-17T15:36:20.339Z,2.63
2023-05-17T15:38:54.192Z,2.17
2023-05-17T15:41:30.237Z,2.67
2023-05-17T15:44:03.513Z,2.63
2023-05-17T15:46:36.322Z,2.30
2023-05-17T15:49:10.882Z,2.50
2023-05-17T15:51:45.019Z,2.43
2023-05-17T15:54:17.821Z,2.70
2023-05-17T15:56:50.497Z,2.23
2023-05-17T15:59:23.048Z,1.67
2023-05-17T16:01:55.641Z,2.63
2023-05-17T16:04:28.577Z,2.63
2023-05-17T16:07:02.633Z,2.20
2023-05-17T16:09:35.220Z,2.80
2023-05-17T16:12:08.165Z,2.23
2023-05-17T16:14:41.625Z,2.33
2023-05-17T16:17:14.411Z,2.70
2023-05-17T16:19:47.129Z,2.33
2023-05-17T16:22:21.586Z,2.60
2023-05-17T16:24:55.194Z,2.13
2023-05-17T16:27:28.618Z,2.43
2023-05-17T16:30:07.429Z,2.30
2023-05-17T16:32:40.252Z,1.53
2023-05-17T16:35:15.263Z,3.80
2023-05-17T16:37:49.372Z,2.10
2023-05-17T16:40:22.092Z,1.93
2023-05-17T16:42:54.853Z,2.40
2023-05-17T16:45:29.321Z,2.60
2023-05-17T16:48:02.268Z,3.23
2023-05-17T16:50:34.983Z,2.27
2023-05-17T16:53:09.105Z,2.47
2023-05-17T16:55:42.155Z,2.23
2023-05-17T16:58:15.212Z,2.00
2023-05-17T17:00:47.823Z,2.43
2023-05-17T17:03:20.642Z,1.97
2023-05-17T17:05:53.982Z,2.23
2023-05-17T17:08:29.839Z,2.57
2023-05-17T17:11:02.499Z,2.10
2023-05-17T17:13:35.802Z,2.63
2023-05-17T17:16:08.544Z,2.27
2023-05-17T17:18:41.398Z,2.40
2023-05-17T17:21:14.686Z,2.20
2023-05-17T17:23:49.020Z,2.47
2023-05-17T17:26:22.021Z,2.27
2023-05-17T17:28:54.963Z,3.13
2023-05-17T17:31:29.777Z,2.30
2023-05-17T17:34:02.579Z,2.23
2023-05-17T17:36:35.294Z,2.00
2023-05-17T17:39:10.408Z,2.00
2023-05-17T17:41:42.991Z,3.40
2023-05-17T17:44:18.193Z,2.00
2023-05-17T17:46:50.972Z,2.83
2023-05-17T17:49:23.665Z,2.90
2023-05-17T17:51:59.924Z,2.07
2023-05-17T17:54:34.058Z,1.83
2023-05-17T17:57:06.877Z,2.20
2023-05-17T17:59:39.726Z,2.37
2023-05-17T18:02:12.308Z,2.30
2023-05-17T18:04:45.299Z,2.63
2023-05-17T18:07:21.160Z,2.20
2023-05-17T18:09:57.003Z,2.60
2023-05-17T18:12:29.760Z,2.83
2023-05-17T18:15:02.470Z,2.20
2023-05-17T18:17:37.222Z,2.83
2023-05-17T18:20:10.216Z,1.90
2023-05-17T18:22:42.829Z,2.90
2023-05-17T18:25:16.876Z,2.77
2023-05-17T18:27:50.666Z,2.27
2023-05-17T18:30:23.677Z,2.33
2023-05-17T18:32:56.528Z,2.63
2023-05-17T18:35:29.716Z,3.33
2023-05-17T18:38:02.904Z,2.37
2023-05-17T18:40:37.208Z,2.40
2023-05-17T18:43:09.935Z,2.83
2023-05-17T18:45:42.717Z,2.40
2023-05-17T18:48:15.648Z,2.50
2023-05-17T18:50:49.728Z,2.60
2023-05-17T18:53:22.403Z,2.90
2023-05-17T18:55:59.480Z,2.90
2023-05-17T18:58:32.459Z,2.90
2023-05-17T19:01:05.350Z,2.80
2023-05-17T19:03:38.085Z,3.10
2023-05-17T19:06:11.088Z,3.10
2023-05-17T19:08:44.191Z,2.83
2023-05-17T19:11:18.423Z,2.93
2023-05-17T19:13:51.096Z,2.70
2023-05-17T19:16:23.818Z,3.03
2023-05-17T19:18:56.877Z,2.50
2023-05-17T19:21:29.636Z,3.23
2023-05-17T19:24:02.321Z,2.50
2023-05-17T19:26:36.517Z,2.90
2023-05-17T19:29:12.019Z,3.30
2023-05-17T19:31:46.273Z,3.17
2023-05-17T19:34:18.997Z,2.90
2023-05-17T19:36:51.837Z,2.53
2023-05-17T19:39:24.521Z,3.37
2023-05-17T19:41:58.531Z,3.00
2023-05-17T19:44:31.424Z,2.80
2023-05-17T19:47:06.027Z,2.60
2023-05-17T19:49:38.675Z,2.73
2023-05-17T19:52:11.451Z,2.47
2023-05-17T19:54:44.068Z,3.47
2023-05-17T19:57:18.414Z,2.93
2023-05-17T19:59:52.298Z,2.90
2023-05-17T20:02:25.348Z,3.07
2023-05-17T20:05:00.005Z,2.80
2023-05-17T20:07:33.527Z,2.90
2023-05-17T20:10:08.806Z,3.40
2023-05-17T20:12:43.852Z,2.93
2023-05-17T20:15:16.576Z,3.10
2023-05-17T20:17:49.462Z,3.70
2023-05-17T20:20:22.238Z,3.77
2023-05-17T20:22:54.991Z,3.80
2023-05-17T20:25:27.607Z,5.20
2023-05-17T20:28:02.106Z,4.40
2023-05-17T20:30:34.762Z,5.70
2023-05-17T20:33:10.482Z,6.73
2023-05-17T20:35:43.280Z,6.23
2023-05-17T20:38:15.997Z,5.47
2023-05-17T20:40:48.734Z,5.50
2023-05-17T20:43:28.659Z,5.50
2023-05-17T20:46:01.414Z,6.37
2023-05-17T20:48:36.369Z,4.93
2023-05-17T20:51:09.440Z,4.90
2023-05-17T20:53:46.557Z,5.20
2023-05-17T20:56:19.595Z,5.53
2023-05-17T20:58:53.591Z,4.93
2023-05-17T21:01:26.506Z,5.77
2023-05-17T21:03:59.750Z,6.63
2023-05-17T21:06:35.461Z,5.90
2023-05-17T21:09:08.513Z,4.87
2023-05-17T21:11:51.445Z,5.00
2023-05-17T21:14:25.888Z,4.60
2023-05-17T21:16:58.516Z,4.60
2023-05-17T21:19:31.258Z,4.60
2023-05-17T21:22:04.079Z,4.33
2023-05-17T21:24:36.888Z,3.80
2023-05-17T21:27:09.434Z,4.60
2023-05-17T21:29:43.579Z,4.63
2023-05-17T21:32:16.747Z,4.33
2023-05-17T21:34:50.998Z,4.43
2023-05-17T21:37:27.559Z,4.83
2023-05-17T21:40:00.305Z,4.27
2023-05-17T21:42:33.806Z,4.10
2023-05-17T21:45:11.106Z,4.23
2023-05-17T21:47:43.812Z,4.33
2023-05-17T21:50:16.818Z,4.63
2023-05-17T21:52:49.536Z,4.80
2023-05-17T21:55:22.238Z,4.57
2023-05-17T21:57:55.409Z,5.67
2023-05-17T22:00:32.734Z,6.40
2023-05-17T22:03:08.156Z,5.67
2023-05-17T22:05:40.927Z,6.50
2023-05-17T22:08:13.902Z,5.47
2023-05-17T22:10:46.645Z,5.10
2023-05-17T22:13:25.323Z,4.77
2023-05-17T22:15:59.593Z,4.20
2023-05-17T22:18:32.338Z,4.50
2023-05-17T22:21:05.313Z,4.17
2023-05-17T22:23:38.126Z,4.07
2023-05-17T22:26:11.020Z,3.80
2023-05-17T22:28:43.667Z,3.63
2023-05-17T22:31:20.487Z,4.00
2023-05-17T22:33:53.898Z,4.03
2023-05-17T22:36:26.741Z,4.00
2023-05-17T22:38:59.859Z,3.93
2023-05-17T22:41:32.461Z,4.30
2023-05-17T22:44:05.312Z,3.73
2023-05-17T22:46:42.230Z,4.03
2023-05-17T22:49:15.142Z,3.67
2023-05-17T22:51:50.871Z,3.90
2023-05-17T22:54:24.747Z,4.50
2023-05-17T22:56:57.539Z,4.27
2023-05-17T22:59:30.588Z,3.60
2023-05-17T23:02:04.564Z,2.97
2023-05-17T23:04:37.952Z,3.27
2023-05-17T23:07:10.641Z,3.27
2023-05-17T23:09:49.862Z,2.80
2023-05-17T23:12:27.475Z,3.63
2023-05-17T23:15:00.331Z,3.10
2023-05-17T23:17:39.048Z,3.23
2023-05-17T23:20:13.017Z,3.47
2023-05-17T23:22:47.585Z,3.20
2023-05-17T23:25:20.730Z,3.17
2023-05-17T23:27:53.424Z,2.90
2023-05-17T23:30:26.371Z,2.83
2023-05-17T23:33:04.398Z,2.87
2023-05-17T23:35:37.067Z,2.87
2023-05-17T23:38:12.859Z,2.73
2023-05-17T23:40:45.640Z,3.37
2023-05-17T23:43:18.315Z,3.00
2023-05-17T23:45:51.335Z,3.43
2023-05-17T23:48:26.182Z,3.27
2023-05-17T23:50:58.911Z,2.60
2023-05-17T23:53:31.591Z,2.70
2023-05-17T23:56:05.029Z,3.10
2023-05-17T23:58:37.769Z,2.93
